sensor_id;sensor_type;location;lat;lon;timestamp;pressure;altitude;pressure_sealevel;temperature;humidity
35435;BME280;21556;55.782;37.528;2023-01-31T00:01:12;97785.53;;;0.14;100.00
35435;BME280;21556;55.782;37.528;2023-01-31T00:03:40;97783.72;;;0.10;100.00
35435;BME280;21556;55.782;37.528;2023-01-31T00:06:31;97783.00;;;-0.16;100.00
35435;BME280;21556;55.782;37.528;2023-01-31T00:08:57;97782.66;;;0.03;100.00
35435;BME280;21556;55.782;37.528;2023-01-31T00:11:25;97790.38;;;0.02;100.00
35435;BME280;21556;55.782;37.528;2023-01-31T00:13:52;97784.44;;;0.04;100.00
35435;BME280;21556;55.782;37.528;2023-01-31T00:16:20;97787.41;;;-0.12;100.00
35435;BME280;21556;55.782;37.528;2023-01-31T00:18:46;97781.03;;;0.05;100.00
35435;BME280;21556;55.782;37.528;2023-01-31T00:21:38;97791.72;;;0.19;100.00
35435;BME280;21556;55.782;37.528;2023-01-31T00:24:11;97785.63;;;0.17;100.00
35435;BME280;21556;55.782;37.528;2023-01-31T00:26:37;97791.81;;;-0.08;100.00
35435;BME280;21556;55.782;37.528;2023-01-31T00:29:04;97791.03;;;-0.06;100.00
35435;BME280;21556;55.782;37.528;2023-01-31T00:31:31;97808.13;;;-0.09;100.00
35435;BME280;21556;55.782;37.528;2023-01-31T00:33:58;97801.34;;;-0.36;100.00
35435;BME280;21556;55.782;37.528;2023-01-31T00:36:30;97797.81;;;-0.09;100.00
35435;BME280;21556;55.782;37.528;2023-01-31T00:38:58;97790.91;;;-0.10;100.00
35435;BME280;21556;55.782;37.528;2023-01-31T00:41:25;97808.78;;;-0.16;100.00
35435;BME280;21556;55.782;37.528;2023-01-31T00:43:51;97792.53;;;-0.14;100.00
35435;BME280;21556;55.782;37.528;2023-01-31T00:46:18;97808.31;;;-0.03;100.00
35435;BME280;21556;55.782;37.528;2023-01-31T00:48:45;97803.81;;;-0.10;100.00
35435;BME280;21556;55.782;37.528;2023-01-31T00:51:11;97802.41;;;0.01;100.00
35435;BME280;21556;55.782;37.528;2023-01-31T00:53:37;97803.91;;;-0.07;100.00
35435;BME280;21556;55.782;37.528;2023-01-31T00:56:06;97808.69;;;-0.19;100.00
35435;BME280;21556;55.782;37.528;2023-01-31T00:58:35;97801.44;;;-0.03;100.00
35435;BME280;21556;55.782;37.528;2023-01-31T01:01:16;97804.31;;;0.08;100.00
35435;BME280;21556;55.782;37.528;2023-01-31T01:03:45;97801.75;;;0.10;100.00
35435;BME280;21556;55.782;37.528;2023-01-31T01:06:11;97800.88;;;0.08;100.00
35435;BME280;21556;55.782;37.528;2023-01-31T01:08:43;97798.03;;;-0.02;100.00
35435;BME280;21556;55.782;37.528;2023-01-31T01:11:10;97810.25;;;0.06;100.00
35435;BME280;21556;55.782;37.528;2023-01-31T01:13:37;97814.03;;;-0.13;100.00
35435;BME280;21556;55.782;37.528;2023-01-31T01:16:13;97811.91;;;0.04;100.00
35435;BME280;21556;55.782;37.528;2023-01-31T01:18:40;97826.69;;;-0.21;100.00
35435;BME280;21556;55.782;37.528;2023-01-31T01:21:12;97821.22;;;-0.02;100.00
35435;BME280;21556;55.782;37.528;2023-01-31T01:23:41;97816.84;;;-0.04;100.00
35435;BME280;21556;55.782;37.528;2023-01-31T01:26:16;97812.03;;;0.08;100.00
35435;BME280;21556;55.782;37.528;2023-01-31T01:28:42;97809.63;;;-0.17;100.00
35435;BME280;21556;55.782;37.528;2023-01-31T01:31:10;97804.69;;;-0.08;100.00
35435;BME280;21556;55.782;37.528;2023-01-31T01:33:39;97805.53;;;-0.09;100.00
35435;BME280;21556;55.782;37.528;2023-01-31T01:36:08;97806.53;;;-0.04;100.00
35435;BME280;21556;55.782;37.528;2023-01-31T01:38:35;97801.56;;;0.02;100.00
35435;BME280;21556;55.782;37.528;2023-01-31T01:41:03;97812.03;;;0.08;100.00
35435;BME280;21556;55.782;37.528;2023-01-31T01:43:50;97830.09;;;0.08;100.00
35435;BME280;21556;55.782;37.528;2023-01-31T01:46:29;97820.44;;;0.01;100.00
35435;BME280;21556;55.782;37.528;2023-01-31T01:49:22;97833.47;;;0.07;100.00
35435;BME280;21556;55.782;37.528;2023-01-31T01:51:53;97829.41;;;-0.16;100.00
35435;BME280;21556;55.782;37.528;2023-01-31T01:54:26;97820.22;;;-0.07;100.00
35435;BME280;21556;55.782;37.528;2023-01-31T01:56:58;97826.25;;;-0.06;100.00
35435;BME280;21556;55.782;37.528;2023-01-31T01:59:30;97811.19;;;0.08;100.00
35435;BME280;21556;55.782;37.528;2023-01-31T02:01:59;97801.38;;;-0.04;100.00
35435;BME280;21556;55.782;37.528;2023-01-31T02:04:31;97810.78;;;-0.06;100.00
35435;BME280;21556;55.782;37.528;2023-01-31T02:06:59;97816.50;;;-0.16;100.00
35435;BME280;21556;55.782;37.528;2023-01-31T02:09:47;97808.66;;;0.11;100.00
35435;BME280;21556;55.782;37.528;2023-01-31T02:12:16;97796.28;;;-0.03;100.00
35435;BME280;21556;55.782;37.528;2023-01-31T02:14:43;97807.94;;;0.15;100.00
35435;BME280;21556;55.782;37.528;2023-01-31T02:17:30;97801.34;;;-0.06;100.00
35435;BME280;21556;55.782;37.528;2023-01-31T02:23:01;97793.78;;;0.01;100.00
35435;BME280;21556;55.782;37.528;2023-01-31T02:25:54;97794.16;;;0.14;100.00
35435;BME280;21556;55.782;37.528;2023-01-31T02:28:41;97788.97;;;0.14;100.00
35435;BME280;21556;55.782;37.528;2023-01-31T02:33:58;97791.50;;;0.11;100.00
35435;BME280;21556;55.782;37.528;2023-01-31T02:39:28;97793.94;;;0.38;100.00
35435;BME280;21556;55.782;37.528;2023-01-31T02:50:08;97791.03;;;0.26;100.00
35435;BME280;21556;55.782;37.528;2023-01-31T02:52:44;97801.88;;;0.14;100.00
35435;BME280;21556;55.782;37.528;2023-01-31T02:55:16;97801.38;;;0.28;100.00
35435;BME280;21556;55.782;37.528;2023-01-31T02:58:05;97799.25;;;0.11;100.00
35435;BME280;21556;55.782;37.528;2023-01-31T03:00:33;97815.50;;;0.09;100.00
35435;BME280;21556;55.782;37.528;2023-01-31T03:03:05;97804.31;;;0.08;100.00
35435;BME280;21556;55.782;37.528;2023-01-31T03:05:31;97808.84;;;0.17;100.00
35435;BME280;21556;55.782;37.528;2023-01-31T03:07:59;97789.28;;;0.25;100.00
35435;BME280;21556;55.782;37.528;2023-01-31T03:10:58;97808.47;;;0.35;100.00
35435;BME280;21556;55.782;37.528;2023-01-31T03:16:25;97817.13;;;0.37;100.00
35435;BME280;21556;55.782;37.528;2023-01-31T03:19:22;97825.81;;;0.40;100.00
35435;BME280;21556;55.782;37.528;2023-01-31T03:22:09;97806.84;;;0.40;100.00
35435;BME280;21556;55.782;37.528;2023-01-31T03:24:44;97824.84;;;0.05;100.00
35435;BME280;21556;55.782;37.528;2023-01-31T03:27:13;97826.63;;;0.39;100.00
35435;BME280;21556;55.782;37.528;2023-01-31T03:29:40;97829.88;;;0.32;100.00
35435;BME280;21556;55.782;37.528;2023-01-31T03:32:22;97829.09;;;0.35;100.00
35435;BME280;21556;55.782;37.528;2023-01-31T03:34:51;97837.66;;;0.34;100.00
35435;BME280;21556;55.782;37.528;2023-01-31T03:37:25;97827.16;;;0.26;100.00
35435;BME280;21556;55.782;37.528;2023-01-31T03:40:20;97832.75;;;0.43;100.00
35435;BME280;21556;55.782;37.528;2023-01-31T03:43:19;97832.81;;;0.46;100.00
35435;BME280;21556;55.782;37.528;2023-01-31T03:45:48;97838.84;;;0.45;100.00
35435;BME280;21556;55.782;37.528;2023-01-31T03:48:17;97835.94;;;0.33;100.00
35435;BME280;21556;55.782;37.528;2023-01-31T03:50:55;97835.22;;;0.38;100.00
35435;BME280;21556;55.782;37.528;2023-01-31T03:53:31;97848.34;;;0.16;100.00
35435;BME280;21556;55.782;37.528;2023-01-31T03:56:19;97825.88;;;0.43;100.00
35435;BME280;21556;55.782;37.528;2023-01-31T03:58:59;97825.16;;;0.47;100.00
35435;BME280;21556;55.782;37.528;2023-01-31T04:01:28;97831.66;;;0.33;100.00
35435;BME280;21556;55.782;37.528;2023-01-31T04:04:04;97833.78;;;0.50;100.00
35435;BME280;21556;55.782;37.528;2023-01-31T04:06:32;97848.13;;;0.40;100.00
35435;BME280;21556;55.782;37.528;2023-01-31T04:08:58;97846.00;;;0.23;100.00
35435;BME280;21556;55.782;37.528;2023-01-31T04:11:26;97840.56;;;0.46;100.00
35435;BME280;21556;55.782;37.528;2023-01-31T04:13:53;97837.47;;;0.26;100.00
35435;BME280;21556;55.782;37.528;2023-01-31T04:16:19;97842.78;;;0.32;100.00
35435;BME280;21556;55.782;37.528;2023-01-31T04:18:44;97846.47;;;0.40;100.00
35435;BME280;21556;55.782;37.528;2023-01-31T04:21:13;97850.69;;;0.38;100.00
35435;BME280;21556;55.782;37.528;2023-01-31T04:23:42;97854.19;;;0.40;100.00
35435;BME280;21556;55.782;37.528;2023-01-31T04:26:08;97848.13;;;0.40;100.00
35435;BME280;21556;55.782;37.528;2023-01-31T04:28:34;97855.97;;;0.43;100.00
35435;BME280;21556;55.782;37.528;2023-01-31T04:31:00;97852.44;;;0.39;100.00
35435;BME280;21556;55.782;37.528;2023-01-31T04:33:26;97853.28;;;0.40;100.00
35435;BME280;21556;55.782;37.528;2023-01-31T04:35:52;97858.81;;;0.52;100.00
35435;BME280;21556;55.782;37.528;2023-01-31T04:38:18;97870.41;;;0.36;100.00
35435;BME280;21556;55.782;37.528;2023-01-31T04:40:43;97860.16;;;0.39;100.00
35435;BME280;21556;55.782;37.528;2023-01-31T04:43:10;97872.06;;;0.33;100.00
35435;BME280;21556;55.782;37.528;2023-01-31T04:45:36;97871.03;;;0.28;100.00
35435;BME280;21556;55.782;37.528;2023-01-31T04:48:02;97874.75;;;0.37;100.00
35435;BME280;21556;55.782;37.528;2023-01-31T04:50:29;97886.59;;;0.31;100.00
35435;BME280;21556;55.782;37.528;2023-01-31T04:52:54;97880.50;;;0.29;100.00
35435;BME280;21556;55.782;37.528;2023-01-31T04:55:22;97880.78;;;0.38;100.00
35435;BME280;21556;55.782;37.528;2023-01-31T04:57:48;97883.84;;;0.24;100.00
35435;BME280;21556;55.782;37.528;2023-01-31T05:00:14;97878.09;;;0.35;100.00
35435;BME280;21556;55.782;37.528;2023-01-31T05:02:40;97898.63;;;0.30;100.00
35435;BME280;21556;55.782;37.528;2023-01-31T05:05:07;97891.88;;;0.35;100.00
35435;BME280;21556;55.782;37.528;2023-01-31T05:07:33;97878.13;;;0.36;100.00
35435;BME280;21556;55.782;37.528;2023-01-31T05:09:59;97890.25;;;0.39;100.00
35435;BME280;21556;55.782;37.528;2023-01-31T05:12:29;97886.03;;;0.41;100.00
35435;BME280;21556;55.782;37.528;2023-01-31T05:14:56;97874.03;;;0.43;100.00
35435;BME280;21556;55.782;37.528;2023-01-31T05:17:22;97885.00;;;0.36;100.00
35435;BME280;21556;55.782;37.528;2023-01-31T05:19:56;97895.63;;;0.46;100.00
35435;BME280;21556;55.782;37.528;2023-01-31T05:22:22;97897.25;;;0.43;100.00
35435;BME280;21556;55.782;37.528;2023-01-31T05:24:48;97903.91;;;0.35;100.00
35435;BME280;21556;55.782;37.528;2023-01-31T05:27:16;97895.78;;;0.53;100.00
35435;BME280;21556;55.782;37.528;2023-01-31T05:29:42;97909.81;;;0.31;100.00
35435;BME280;21556;55.782;37.528;2023-01-31T05:32:08;97899.03;;;0.45;100.00
35435;BME280;21556;55.782;37.528;2023-01-31T05:34:35;97896.09;;;0.63;100.00
35435;BME280;21556;55.782;37.528;2023-01-31T05:37:01;97894.88;;;0.51;100.00
35435;BME280;21556;55.782;37.528;2023-01-31T05:39:28;97909.09;;;0.36;100.00
35435;BME280;21556;55.782;37.528;2023-01-31T05:41:55;97911.56;;;0.32;100.00
35435;BME280;21556;55.782;37.528;2023-01-31T05:44:21;97898.06;;;0.40;100.00
35435;BME280;21556;55.782;37.528;2023-01-31T05:46:47;97922.22;;;0.44;100.00
35435;BME280;21556;55.782;37.528;2023-01-31T05:49:13;97896.75;;;0.56;100.00
35435;BME280;21556;55.782;37.528;2023-01-31T05:51:39;97904.38;;;0.52;100.00
35435;BME280;21556;55.782;37.528;2023-01-31T05:54:06;97906.22;;;0.57;100.00
35435;BME280;21556;55.782;37.528;2023-01-31T05:56:32;97914.84;;;0.58;100.00
35435;BME280;21556;55.782;37.528;2023-01-31T05:58:58;97899.16;;;0.50;100.00
35435;BME280;21556;55.782;37.528;2023-01-31T06:01:26;97890.84;;;0.60;100.00
35435;BME280;21556;55.782;37.528;2023-01-31T06:03:53;97909.53;;;0.52;100.00
35435;BME280;21556;55.782;37.528;2023-01-31T06:06:21;97913.09;;;0.57;100.00
35435;BME280;21556;55.782;37.528;2023-01-31T06:08:47;97912.75;;;0.76;100.00
35435;BME280;21556;55.782;37.528;2023-01-31T06:11:13;97933.75;;;0.57;100.00
35435;BME280;21556;55.782;37.528;2023-01-31T06:13:41;97922.75;;;0.62;100.00
35435;BME280;21556;55.782;37.528;2023-01-31T06:16:11;97929.25;;;0.50;100.00
35435;BME280;21556;55.782;37.528;2023-01-31T06:18:37;97928.84;;;0.66;100.00
35435;BME280;21556;55.782;37.528;2023-01-31T06:21:03;97927.19;;;0.68;100.00
35435;BME280;21556;55.782;37.528;2023-01-31T06:23:29;97937.38;;;0.63;100.00
35435;BME280;21556;55.782;37.528;2023-01-31T06:25:55;97945.69;;;0.53;100.00
35435;BME280;21556;55.782;37.528;2023-01-31T06:28:22;97937.47;;;0.66;100.00
35435;BME280;21556;55.782;37.528;2023-01-31T06:30:48;97945.09;;;0.62;100.00
35435;BME280;21556;55.782;37.528;2023-01-31T06:33:14;97948.19;;;0.50;100.00
35435;BME280;21556;55.782;37.528;2023-01-31T06:35:42;97959.25;;;0.46;100.00
35435;BME280;21556;55.782;37.528;2023-01-31T06:38:11;97950.19;;;0.60;100.00
35435;BME280;21556;55.782;37.528;2023-01-31T06:40:37;97952.88;;;0.63;100.00
35435;BME280;21556;55.782;37.528;2023-01-31T06:43:03;97964.69;;;0.55;100.00
35435;BME280;21556;55.782;37.528;2023-01-31T06:45:29;97955.34;;;0.60;100.00
35435;BME280;21556;55.782;37.528;2023-01-31T06:47:55;97962.41;;;0.66;100.00
35435;BME280;21556;55.782;37.528;2023-01-31T06:50:22;97990.66;;;0.61;100.00
35435;BME280;21556;55.782;37.528;2023-01-31T06:52:49;97975.38;;;0.69;100.00
35435;BME280;21556;55.782;37.528;2023-01-31T06:55:15;97966.63;;;0.64;100.00
35435;BME280;21556;55.782;37.528;2023-01-31T06:57:48;97967.22;;;0.84;100.00
35435;BME280;21556;55.782;37.528;2023-01-31T07:00:15;97969.34;;;0.68;100.00
35435;BME280;21556;55.782;37.528;2023-01-31T07:02:41;97967.59;;;0.67;100.00
35435;BME280;21556;55.782;37.528;2023-01-31T07:05:08;97978.84;;;0.69;100.00
35435;BME280;21556;55.782;37.528;2023-01-31T07:07:35;97966.06;;;0.74;100.00
35435;BME280;21556;55.782;37.528;2023-01-31T07:10:02;97979.81;;;0.73;100.00
35435;BME280;21556;55.782;37.528;2023-01-31T07:12:28;97994.47;;;0.74;100.00
35435;BME280;21556;55.782;37.528;2023-01-31T07:14:54;97989.75;;;0.59;100.00
35435;BME280;21556;55.782;37.528;2023-01-31T07:17:20;97991.66;;;0.66;100.00
35435;BME280;21556;55.782;37.528;2023-01-31T07:19:46;97998.19;;;0.84;100.00
35435;BME280;21556;55.782;37.528;2023-01-31T07:22:12;97992.97;;;0.82;100.00
35435;BME280;21556;55.782;37.528;2023-01-31T07:24:37;97987.72;;;0.79;100.00
35435;BME280;21556;55.782;37.528;2023-01-31T07:27:03;97992.22;;;0.86;100.00
35435;BME280;21556;55.782;37.528;2023-01-31T07:29:29;97977.72;;;0.91;100.00
35435;BME280;21556;55.782;37.528;2023-01-31T07:31:55;97992.50;;;0.97;100.00
35435;BME280;21556;55.782;37.528;2023-01-31T07:34:22;97993.44;;;0.99;100.00
35435;BME280;21556;55.782;37.528;2023-01-31T07:36:49;98010.50;;;0.94;100.00
35435;BME280;21556;55.782;37.528;2023-01-31T07:39:15;97996.22;;;1.07;100.00
35435;BME280;21556;55.782;37.528;2023-01-31T07:41:41;98004.22;;;0.84;100.00
35435;BME280;21556;55.782;37.528;2023-01-31T07:44:07;98002.59;;;0.58;100.00
35435;BME280;21556;55.782;37.528;2023-01-31T07:46:36;98008.75;;;0.93;100.00
35435;BME280;21556;55.782;37.528;2023-01-31T07:49:02;98021.81;;;0.67;100.00
35435;BME280;21556;55.782;37.528;2023-01-31T07:51:28;98008.94;;;0.99;100.00
35435;BME280;21556;55.782;37.528;2023-01-31T07:53:55;98007.53;;;1.12;100.00
35435;BME280;21556;55.782;37.528;2023-01-31T07:56:21;98007.88;;;1.24;100.00
35435;BME280;21556;55.782;37.528;2023-01-31T07:58:49;98019.38;;;1.04;100.00
35435;BME280;21556;55.782;37.528;2023-01-31T08:01:20;98014.50;;;1.14;100.00
35435;BME280;21556;55.782;37.528;2023-01-31T08:04:06;98020.44;;;1.12;100.00
35435;BME280;21556;55.782;37.528;2023-01-31T08:06:32;98027.59;;;1.20;100.00
35435;BME280;21556;55.782;37.528;2023-01-31T08:08:59;98019.94;;;0.93;100.00
35435;BME280;21556;55.782;37.528;2023-01-31T08:11:26;98018.03;;;0.86;100.00
35435;BME280;21556;55.782;37.528;2023-01-31T08:13:52;98031.31;;;1.00;100.00
35435;BME280;21556;55.782;37.528;2023-01-31T08:16:18;98038.50;;;1.10;100.00
35435;BME280;21556;55.782;37.528;2023-01-31T08:18:46;98046.59;;;0.91;100.00
35435;BME280;21556;55.782;37.528;2023-01-31T08:21:13;98038.22;;;0.69;100.00
35435;BME280;21556;55.782;37.528;2023-01-31T08:23:40;98052.63;;;0.91;100.00
35435;BME280;21556;55.782;37.528;2023-01-31T08:26:12;98052.28;;;1.11;100.00
35435;BME280;21556;55.782;37.528;2023-01-31T08:28:41;98047.13;;;1.11;100.00
35435;BME280;21556;55.782;37.528;2023-01-31T08:31:12;98044.81;;;1.22;100.00
35435;BME280;21556;55.782;37.528;2023-01-31T08:33:41;98050.44;;;1.07;100.00
35435;BME280;21556;55.782;37.528;2023-01-31T08:36:13;98047.09;;;1.09;100.00
35435;BME280;21556;55.782;37.528;2023-01-31T08:38:39;98048.44;;;0.96;100.00
35435;BME280;21556;55.782;37.528;2023-01-31T08:41:06;98044.91;;;1.25;100.00
35435;BME280;21556;55.782;37.528;2023-01-31T08:43:33;98044.13;;;0.95;100.00
35435;BME280;21556;55.782;37.528;2023-01-31T08:45:58;98050.84;;;1.20;100.00
35435;BME280;21556;55.782;37.528;2023-01-31T08:48:24;98060.41;;;1.25;100.00
35435;BME280;21556;55.782;37.528;2023-01-31T08:50:50;98067.56;;;1.03;100.00
35435;BME280;21556;55.782;37.528;2023-01-31T08:53:16;98042.66;;;1.05;100.00
35435;BME280;21556;55.782;37.528;2023-01-31T08:55:42;98048.66;;;1.04;100.00
35435;BME280;21556;55.782;37.528;2023-01-31T08:58:08;98050.84;;;1.20;100.00
35435;BME280;21556;55.782;37.528;2023-01-31T09:00:34;98045.97;;;1.31;100.00
35435;BME280;21556;55.782;37.528;2023-01-31T09:03:00;98045.13;;;1.34;100.00
35435;BME280;21556;55.782;37.528;2023-01-31T09:05:27;98039.06;;;1.32;100.00
35435;BME280;21556;55.782;37.528;2023-01-31T09:07:53;98041.25;;;1.50;100.00
35435;BME280;21556;55.782;37.528;2023-01-31T09:10:20;98039.00;;;1.29;100.00
35435;BME280;21556;55.782;37.528;2023-01-31T09:12:46;98049.31;;;1.29;100.00
35435;BME280;21556;55.782;37.528;2023-01-31T09:15:22;98045.97;;;1.33;100.00
35435;BME280;21556;55.782;37.528;2023-01-31T09:17:51;98045.13;;;1.32;100.00
35435;BME280;21556;55.782;37.528;2023-01-31T09:20:18;98039.94;;;1.32;100.00
35435;BME280;21556;55.782;37.528;2023-01-31T09:22:44;98042.88;;;1.13;100.00
35435;BME280;21556;55.782;37.528;2023-01-31T09:25:10;98043.84;;;1.16;100.00
35435;BME280;21556;55.782;37.528;2023-01-31T09:27:38;98048.91;;;1.13;100.00
35435;BME280;21556;55.782;37.528;2023-01-31T09:30:08;98042.34;;;1.26;100.00
35435;BME280;21556;55.782;37.528;2023-01-31T09:32:34;98032.47;;;1.43;100.00
35435;BME280;21556;55.782;37.528;2023-01-31T09:35:01;98034.31;;;1.15;100.00
35435;BME280;21556;55.782;37.528;2023-01-31T09:37:29;98028.91;;;1.06;100.00
35435;BME280;21556;55.782;37.528;2023-01-31T09:39:56;98039.63;;;1.20;100.00
35435;BME280;21556;55.782;37.528;2023-01-31T09:42:26;98026.94;;;1.29;100.00
35435;BME280;21556;55.782;37.528;2023-01-31T09:47:45;98046.03;;;1.67;100.00
35435;BME280;21556;55.782;37.528;2023-01-31T09:50:17;98049.97;;;1.53;100.00
35435;BME280;21556;55.782;37.528;2023-01-31T09:52:45;98044.94;;;1.59;100.00
35435;BME280;21556;55.782;37.528;2023-01-31T09:55:45;98039.63;;;1.88;100.00
35435;BME280;21556;55.782;37.528;2023-01-31T10:04:19;98044.03;;;1.57;100.00
35435;BME280;21556;55.782;37.528;2023-01-31T10:06:53;98041.38;;;1.54;100.00
35435;BME280;21556;55.782;37.528;2023-01-31T10:09:24;98037.84;;;1.51;100.00
35435;BME280;21556;55.782;37.528;2023-01-31T10:12:43;98044.25;;;1.66;100.00
35435;BME280;21556;55.782;37.528;2023-01-31T10:14:53;98050.59;;;1.44;100.00
35435;BME280;21556;55.782;37.528;2023-01-31T10:17:36;98050.84;;;1.54;100.00
35435;BME280;21556;55.782;37.528;2023-01-31T10:20:46;98060.44;;;1.58;100.00
35435;BME280;21556;55.782;37.528;2023-01-31T10:23:28;98050.09;;;1.59;100.00
35435;BME280;21556;55.782;37.528;2023-01-31T10:28:50;98061.75;;;1.77;100.00
35435;BME280;21556;55.782;37.528;2023-01-31T10:31:35;98057.84;;;1.58;100.00
35435;BME280;21556;55.782;37.528;2023-01-31T10:36:58;98068.38;;;1.65;100.00
35435;BME280;21556;55.782;37.528;2023-01-31T10:39:41;98075.09;;;1.59;100.00
35435;BME280;21556;55.782;37.528;2023-01-31T10:42:18;98081.69;;;1.48;100.00
35435;BME280;21556;55.782;37.528;2023-01-31T10:44:50;98073.25;;;1.53;100.00
35435;BME280;21556;55.782;37.528;2023-01-31T10:47:32;98081.59;;;1.44;100.00
35435;BME280;21556;55.782;37.528;2023-01-31T10:50:00;98084.56;;;1.58;100.00
35435;BME280;21556;55.782;37.528;2023-01-31T10:57:45;98075.47;;;1.74;100.00
35435;BME280;21556;55.782;37.528;2023-01-31T11:00:19;98090.25;;;1.78;100.00
35435;BME280;21556;55.782;37.528;2023-01-31T11:02:47;98073.97;;;1.82;100.00
35435;BME280;21556;55.782;37.528;2023-01-31T11:05:22;98082.91;;;1.95;100.00
35435;BME280;21556;55.782;37.528;2023-01-31T11:07:51;98082.78;;;1.90;100.00
35435;BME280;21556;55.782;37.528;2023-01-31T11:10:29;98090.31;;;1.81;100.00
35435;BME280;21556;55.782;37.528;2023-01-31T11:12:59;98082.34;;;1.72;100.00
35435;BME280;21556;55.782;37.528;2023-01-31T11:15:38;98076.41;;;1.76;100.00
35435;BME280;21556;55.782;37.528;2023-01-31T11:18:13;98075.63;;;1.79;100.00
35435;BME280;21556;55.782;37.528;2023-01-31T11:20:46;98083.88;;;1.65;100.00
35435;BME280;21556;55.782;37.528;2023-01-31T11:23:16;98073.06;;;1.80;100.00
35435;BME280;21556;55.782;37.528;2023-01-31T11:25:48;98073.78;;;1.75;100.00
35435;BME280;21556;55.782;37.528;2023-01-31T11:28:36;98077.66;;;1.92;100.00
35435;BME280;21556;55.782;37.528;2023-01-31T11:31:16;98082.13;;;1.99;100.00
35435;BME280;21556;55.782;37.528;2023-01-31T11:33:54;98074.84;;;1.83;100.00
35435;BME280;21556;55.782;37.528;2023-01-31T11:36:21;98065.84;;;2.03;100.00
35435;BME280;21556;55.782;37.528;2023-01-31T11:38:50;98069.75;;;1.86;100.00
35435;BME280;21556;55.782;37.528;2023-01-31T11:44:07;98072.19;;;1.80;100.00
35435;BME280;21556;55.782;37.528;2023-01-31T11:46:47;98079.25;;;1.87;100.00
35435;BME280;21556;55.782;37.528;2023-01-31T11:50:02;98073.41;;;1.96;100.00
35435;BME280;21556;55.782;37.528;2023-01-31T11:52:43;98093.56;;;2.07;100.00
35435;BME280;21556;55.782;37.528;2023-01-31T11:55:16;98077.28;;;1.77;100.00
35435;BME280;21556;55.782;37.528;2023-01-31T11:57:43;98087.31;;;1.99;100.00
35435;BME280;21556;55.782;37.528;2023-01-31T12:02:58;98082.97;;;1.98;100.00
35435;BME280;21556;55.782;37.528;2023-01-31T12:05:50;98091.22;;;1.82;100.00
35435;BME280;21556;55.782;37.528;2023-01-31T12:08:36;98078.06;;;1.74;100.00
35435;BME280;21556;55.782;37.528;2023-01-31T12:16:12;98091.66;;;2.00;100.00
35435;BME280;21556;55.782;37.528;2023-01-31T12:24:14;98096.19;;;2.10;100.00
35435;BME280;21556;55.782;37.528;2023-01-31T12:26:48;98099.25;;;1.92;100.00
35435;BME280;21556;55.782;37.528;2023-01-31T12:32:07;98109.69;;;1.97;100.00
35435;BME280;21556;55.782;37.528;2023-01-31T12:43:59;98104.69;;;2.05;100.00
35435;BME280;21556;55.782;37.528;2023-01-31T13:03:35;98109.97;;;2.09;100.00
35435;BME280;21556;55.782;37.528;2023-01-31T13:06:14;98106.63;;;2.13;100.00
35435;BME280;21556;55.782;37.528;2023-01-31T13:08:51;98097.22;;;2.17;100.00
35435;BME280;21556;55.782;37.528;2023-01-31T13:11:23;98110.09;;;2.14;100.00
35435;BME280;21556;55.782;37.528;2023-01-31T13:14:00;98112.22;;;1.96;100.00
35435;BME280;21556;55.782;37.528;2023-01-31T13:16:35;98106.50;;;2.07;100.00
35435;BME280;21556;55.782;37.528;2023-01-31T13:19:17;98108.31;;;2.11;100.00
35435;BME280;21556;55.782;37.528;2023-01-31T13:21:49;98102.81;;;1.98;100.00
35435;BME280;21556;55.782;37.528;2023-01-31T13:24:24;98109.78;;;2.02;100.00
35435;BME280;21556;55.782;37.528;2023-01-31T13:26:57;98109.78;;;2.00;100.00
35435;BME280;21556;55.782;37.528;2023-01-31T13:29:37;98121.63;;;2.27;100.00
35435;BME280;21556;55.782;37.528;2023-01-31T13:32:10;98118.75;;;2.14;100.00
35435;BME280;21556;55.782;37.528;2023-01-31T13:34:59;98136.44;;;1.98;100.00
35435;BME280;21556;55.782;37.528;2023-01-31T13:37:32;98147.91;;;2.09;100.00
35435;BME280;21556;55.782;37.528;2023-01-31T13:40:02;98166.19;;;2.15;100.00
35435;BME280;21556;55.782;37.528;2023-01-31T13:42:33;98148.03;;;2.13;100.00
35435;BME280;21556;55.782;37.528;2023-01-31T13:45:05;98153.19;;;2.12;100.00
35435;BME280;21556;55.782;37.528;2023-01-31T13:48:05;98159.97;;;2.08;100.00
35435;BME280;21556;55.782;37.528;2023-01-31T13:50:38;98174.00;;;1.85;100.00
35435;BME280;21556;55.782;37.528;2023-01-31T13:53:25;98186.72;;;1.76;100.00
35435;BME280;21556;55.782;37.528;2023-01-31T13:55:54;98180.00;;;1.82;100.00
35435;BME280;21556;55.782;37.528;2023-01-31T13:58:24;98174.56;;;2.06;100.00
35435;BME280;21556;55.782;37.528;2023-01-31T14:01:03;98170.16;;;2.02;100.00
35435;BME280;21556;55.782;37.528;2023-01-31T14:03:30;98179.63;;;2.00;100.00
35435;BME280;21556;55.782;37.528;2023-01-31T14:05:58;98188.72;;;1.86;100.00
35435;BME280;21556;55.782;37.528;2023-01-31T14:10:55;98182.25;;;1.70;100.00
35435;BME280;21556;55.782;37.528;2023-01-31T14:13:41;98172.66;;;1.99;100.00
35435;BME280;21556;55.782;37.528;2023-01-31T14:16:37;98180.63;;;2.07;100.00
35435;BME280;21556;55.782;37.528;2023-01-31T14:27:22;98188.28;;;2.02;100.00
35435;BME280;21556;55.782;37.528;2023-01-31T14:32:35;98209.06;;;1.74;100.00
35435;BME280;21556;55.782;37.528;2023-01-31T14:40:28;98199.56;;;2.06;100.00
35435;BME280;21556;55.782;37.528;2023-01-31T14:43:17;98204.19;;;2.17;100.00
35435;BME280;21556;55.782;37.528;2023-01-31T14:49:03;98187.25;;;2.29;100.00
35435;BME280;21556;55.782;37.528;2023-01-31T14:54:43;98209.25;;;2.13;100.00
35435;BME280;21556;55.782;37.528;2023-01-31T14:57:13;98208.56;;;1.87;100.00
35435;BME280;21556;55.782;37.528;2023-01-31T15:00:00;98199.19;;;1.92;100.00